sensor_id;sensor_type;location;lat;lon;timestamp;temperature;humidity
66629;DHT22;53532;53.084;6.352;2022-07-22T00:01:16;16.10;99.90
66629;DHT22;53532;53.084;6.352;2022-07-22T00:03:43;16.00;99.90
66629;DHT22;53532;53.084;6.352;2022-07-22T00:06:09;16.10;99.90
66629;DHT22;53532;53.084;6.352;2022-07-22T00:08:35;16.00;99.90
66629;DHT22;53532;53.084;6.352;2022-07-22T00:11:01;16.10;99.90
66629;DHT22;53532;53.084;6.352;2022-07-22T00:13:26;16.00;99.90
66629;DHT22;53532;53.084;6.352;2022-07-22T00:15:52;16.00;99.90
66629;DHT22;53532;53.084;6.352;2022-07-22T00:18:18;16.00;99.90
66629;DHT22;53532;53.084;6.352;2022-07-22T00:20:45;16.00;99.90
66629;DHT22;53532;53.084;6.352;2022-07-22T00:23:11;16.00;99.90
66629;DHT22;53532;53.084;6.352;2022-07-22T00:25:37;16.00;99.90
66629;DHT22;53532;53.084;6.352;2022-07-22T00:28:03;16.00;99.90
66629;DHT22;53532;53.084;6.352;2022-07-22T00:30:29;16.10;99.90
66629;DHT22;53532;53.084;6.352;2022-07-22T00:32:55;16.00;99.90
66629;DHT22;53532;53.084;6.352;2022-07-22T00:35:21;16.10;99.90
66629;DHT22;53532;53.084;6.352;2022-07-22T00:37:48;16.10;99.90
66629;DHT22;53532;53.084;6.352;2022-07-22T00:40:14;16.00;99.90
66629;DHT22;53532;53.084;6.352;2022-07-22T00:42:40;16.00;99.90
66629;DHT22;53532;53.084;6.352;2022-07-22T00:45:07;16.10;99.90
66629;DHT22;53532;53.084;6.352;2022-07-22T00:47:33;16.10;99.90
66629;DHT22;53532;53.084;6.352;2022-07-22T00:49:59;16.10;99.90
66629;DHT22;53532;53.084;6.352;2022-07-22T00:52:24;16.00;99.90
66629;DHT22;53532;53.084;6.352;2022-07-22T00:54:52;16.10;99.90
66629;DHT22;53532;53.084;6.352;2022-07-22T00:57:18;16.10;99.90
66629;DHT22;53532;53.084;6.352;2022-07-22T00:59:44;16.00;99.90
66629;DHT22;53532;53.084;6.352;2022-07-22T01:02:10;16.00;99.90
66629;DHT22;53532;53.084;6.352;2022-07-22T01:04:36;16.00;99.90
66629;DHT22;53532;53.084;6.352;2022-07-22T01:07:02;16.00;99.90
66629;DHT22;53532;53.084;6.352;2022-07-22T01:09:28;16.00;99.90
66629;DHT22;53532;53.084;6.352;2022-07-22T01:11:55;16.00;99.90
66629;DHT22;53532;53.084;6.352;2022-07-22T01:14:21;16.00;99.90
66629;DHT22;53532;53.084;6.352;2022-07-22T01:16:47;16.00;99.90
66629;DHT22;53532;53.084;6.352;2022-07-22T01:19:13;15.90;99.90
66629;DHT22;53532;53.084;6.352;2022-07-22T01:21:40;15.90;99.90
66629;DHT22;53532;53.084;6.352;2022-07-22T01:24:06;15.90;99.90
66629;DHT22;53532;53.084;6.352;2022-07-22T01:26:32;15.90;99.90
66629;DHT22;53532;53.084;6.352;2022-07-22T01:28:58;15.90;99.90
66629;DHT22;53532;53.084;6.352;2022-07-22T01:31:24;15.90;99.90
66629;DHT22;53532;53.084;6.352;2022-07-22T01:33:50;15.90;99.90
66629;DHT22;53532;53.084;6.352;2022-07-22T01:36:16;15.90;99.90
66629;DHT22;53532;53.084;6.352;2022-07-22T01:38:44;15.90;99.90
66629;DHT22;53532;53.084;6.352;2022-07-22T01:41:10;15.80;99.90
66629;DHT22;53532;53.084;6.352;2022-07-22T01:43:36;15.80;99.90
66629;DHT22;53532;53.084;6.352;2022-07-22T01:46:02;15.80;99.90
66629;DHT22;53532;53.084;6.352;2022-07-22T01:48:28;15.80;99.90
66629;DHT22;53532;53.084;6.352;2022-07-22T01:50:55;15.80;99.90
66629;DHT22;53532;53.084;6.352;2022-07-22T01:53:21;15.80;99.90
66629;DHT22;53532;53.084;6.352;2022-07-22T01:55:48;15.80;99.90
66629;DHT22;53532;53.084;6.352;2022-07-22T01:58:14;15.80;99.90
66629;DHT22;53532;53.084;6.352;2022-07-22T02:00:40;15.80;99.90
66629;DHT22;53532;53.084;6.352;2022-07-22T02:03:06;15.80;99.90
66629;DHT22;53532;53.084;6.352;2022-07-22T02:05:32;15.80;99.90
66629;DHT22;53532;53.084;6.352;2022-07-22T02:08:03;15.80;99.90
66629;DHT22;53532;53.084;6.352;2022-07-22T02:10:29;15.80;99.90
66629;DHT22;53532;53.084;6.352;2022-07-22T02:12:57;15.80;99.90
66629;DHT22;53532;53.084;6.352;2022-07-22T02:15:23;15.80;99.90
66629;DHT22;53532;53.084;6.352;2022-07-22T02:17:49;15.80;99.90
66629;DHT22;53532;53.084;6.352;2022-07-22T02:20:15;15.80;99.90
66629;DHT22;53532;53.084;6.352;2022-07-22T02:22:41;15.70;99.90
66629;DHT22;53532;53.084;6.352;2022-07-22T02:25:07;15.70;99.90
66629;DHT22;53532;53.084;6.352;2022-07-22T02:27:33;15.70;99.90
66629;DHT22;53532;53.084;6.352;2022-07-22T02:30:00;15.70;99.90
66629;DHT22;53532;53.084;6.352;2022-07-22T02:32:26;15.70;99.90
66629;DHT22;53532;53.084;6.352;2022-07-22T02:34:52;15.70;99.90
66629;DHT22;53532;53.084;6.352;2022-07-22T02:37:18;15.70;99.90
66629;DHT22;53532;53.084;6.352;2022-07-22T02:39:44;15.70;99.90
66629;DHT22;53532;53.084;6.352;2022-07-22T02:42:09;15.70;99.90
66629;DHT22;53532;53.084;6.352;2022-07-22T02:44:36;15.70;99.90
66629;DHT22;53532;53.084;6.352;2022-07-22T02:47:03;15.70;99.90
66629;DHT22;53532;53.084;6.352;2022-07-22T02:49:29;15.70;99.90
66629;DHT22;53532;53.084;6.352;2022-07-22T02:51:55;15.70;99.90
66629;DHT22;53532;53.084;6.352;2022-07-22T02:54:21;15.70;99.90
66629;DHT22;53532;53.084;6.352;2022-07-22T02:56:48;15.70;99.90
66629;DHT22;53532;53.084;6.352;2022-07-22T02:59:14;15.70;99.90
66629;DHT22;53532;53.084;6.352;2022-07-22T03:01:40;15.70;99.90
66629;DHT22;53532;53.084;6.352;2022-07-22T03:04:07;15.70;99.90
66629;DHT22;53532;53.084;6.352;2022-07-22T03:06:33;15.70;99.90
66629;DHT22;53532;53.084;6.352;2022-07-22T03:08:59;15.70;99.90
66629;DHT22;53532;53.084;6.352;2022-07-22T03:11:24;15.70;99.90
66629;DHT22;53532;53.084;6.352;2022-07-22T03:13:50;15.70;99.90
66629;DHT22;53532;53.084;6.352;2022-07-22T03:16:16;15.70;99.90
66629;DHT22;53532;53.084;6.352;2022-07-22T03:18:42;15.70;99.90
66629;DHT22;53532;53.084;6.352;2022-07-22T03:21:09;15.70;99.90
66629;DHT22;53532;53.084;6.352;2022-07-22T03:23:34;15.70;99.90
66629;DHT22;53532;53.084;6.352;2022-07-22T03:26:00;15.60;99.90
66629;DHT22;53532;53.084;6.352;2022-07-22T03:28:26;15.70;99.90
66629;DHT22;53532;53.084;6.352;2022-07-22T03:30:53;15.70;99.90
66629;DHT22;53532;53.084;6.352;2022-07-22T03:33:18;15.60;99.90
66629;DHT22;53532;53.084;6.352;2022-07-22T03:35:44;15.60;99.90
66629;DHT22;53532;53.084;6.352;2022-07-22T03:38:11;15.60;99.90
66629;DHT22;53532;53.084;6.352;2022-07-22T03:40:37;15.60;99.90
66629;DHT22;53532;53.084;6.352;2022-07-22T03:43:03;15.60;99.90
66629;DHT22;53532;53.084;6.352;2022-07-22T03:45:29;15.60;99.90
66629;DHT22;53532;53.084;6.352;2022-07-22T03:47:54;15.60;99.90
66629;DHT22;53532;53.084;6.352;2022-07-22T03:50:23;15.60;99.90
66629;DHT22;53532;53.084;6.352;2022-07-22T03:52:49;15.60;99.90
66629;DHT22;53532;53.084;6.352;2022-07-22T03:55:16;15.60;99.90
66629;DHT22;53532;53.084;6.352;2022-07-22T03:57:41;15.60;99.90
66629;DHT22;53532;53.084;6.352;2022-07-22T04:00:08;15.60;99.90
66629;DHT22;53532;53.084;6.352;2022-07-22T04:02:34;15.60;99.90
66629;DHT22;53532;53.084;6.352;2022-07-22T04:05:00;15.60;99.90
66629;DHT22;53532;53.084;6.352;2022-07-22T04:07:25;15.60;99.90
66629;DHT22;53532;53.084;6.352;2022-07-22T04:09:51;15.60;99.90
66629;DHT22;53532;53.084;6.352;2022-07-22T04:12:18;15.60;99.90
66629;DHT22;53532;53.084;6.352;2022-07-22T04:14:44;15.60;99.90
66629;DHT22;53532;53.084;6.352;2022-07-22T04:17:10;15.60;99.90
66629;DHT22;53532;53.084;6.352;2022-07-22T04:19:36;15.70;99.90
66629;DHT22;53532;53.084;6.352;2022-07-22T04:22:02;15.70;99.90
66629;DHT22;53532;53.084;6.352;2022-07-22T04:24:27;15.60;99.90
66629;DHT22;53532;53.084;6.352;2022-07-22T04:26:53;15.70;99.90
66629;DHT22;53532;53.084;6.352;2022-07-22T04:29:21;15.70;99.90
66629;DHT22;53532;53.084;6.352;2022-07-22T04:31:47;15.70;99.90
66629;DHT22;53532;53.084;6.352;2022-07-22T04:34:12;15.70;99.90
66629;DHT22;53532;53.084;6.352;2022-07-22T04:36:38;15.70;99.90
66629;DHT22;53532;53.084;6.352;2022-07-22T04:39:04;15.70;99.90
66629;DHT22;53532;53.084;6.352;2022-07-22T04:41:31;15.70;99.90
66629;DHT22;53532;53.084;6.352;2022-07-22T04:43:57;15.70;99.90
66629;DHT22;53532;53.084;6.352;2022-07-22T04:46:24;15.70;99.90
66629;DHT22;53532;53.084;6.352;2022-07-22T04:48:50;15.70;99.90
66629;DHT22;53532;53.084;6.352;2022-07-22T04:51:15;15.80;99.90
66629;DHT22;53532;53.084;6.352;2022-07-22T04:53:41;15.80;99.90
66629;DHT22;53532;53.084;6.352;2022-07-22T04:56:07;15.80;99.90
66629;DHT22;53532;53.084;6.352;2022-07-22T04:58:33;15.80;99.90
66629;DHT22;53532;53.084;6.352;2022-07-22T05:00:59;15.80;99.90
66629;DHT22;53532;53.084;6.352;2022-07-22T05:03:26;15.80;99.90
66629;DHT22;53532;53.084;6.352;2022-07-22T05:05:52;15.80;99.90
66629;DHT22;53532;53.084;6.352;2022-07-22T05:08:17;15.90;99.90
66629;DHT22;53532;53.084;6.352;2022-07-22T05:10:43;15.90;99.90
66629;DHT22;53532;53.084;6.352;2022-07-22T05:13:11;15.90;99.90
66629;DHT22;53532;53.084;6.352;2022-07-22T05:15:37;16.00;99.90
66629;DHT22;53532;53.084;6.352;2022-07-22T05:18:03;16.00;99.90
66629;DHT22;53532;53.084;6.352;2022-07-22T05:20:30;16.10;99.90
66629;DHT22;53532;53.084;6.352;2022-07-22T05:22:56;16.20;99.90
66629;DHT22;53532;53.084;6.352;2022-07-22T05:25:22;16.10;99.90
66629;DHT22;53532;53.084;6.352;2022-07-22T05:27:51;16.20;99.90
66629;DHT22;53532;53.084;6.352;2022-07-22T05:30:17;16.20;99.90
66629;DHT22;53532;53.084;6.352;2022-07-22T05:32:43;16.20;99.90
66629;DHT22;53532;53.084;6.352;2022-07-22T05:35:09;16.20;99.90
66629;DHT22;53532;53.084;6.352;2022-07-22T05:37:36;16.30;99.90
66629;DHT22;53532;53.084;6.352;2022-07-22T05:40:02;16.30;99.90
66629;DHT22;53532;53.084;6.352;2022-07-22T05:42:28;16.30;99.90
66629;DHT22;53532;53.084;6.352;2022-07-22T05:44:54;16.40;99.90
66629;DHT22;53532;53.084;6.352;2022-07-22T05:47:19;16.50;99.90
66629;DHT22;53532;53.084;6.352;2022-07-22T05:49:45;16.50;99.90
66629;DHT22;53532;53.084;6.352;2022-07-22T05:52:11;16.50;99.90
66629;DHT22;53532;53.084;6.352;2022-07-22T05:54:38;16.60;99.90
66629;DHT22;53532;53.084;6.352;2022-07-22T05:57:05;16.60;99.90
66629;DHT22;53532;53.084;6.352;2022-07-22T05:59:33;16.70;99.90
66629;DHT22;53532;53.084;6.352;2022-07-22T06:01:59;16.70;99.90
66629;DHT22;53532;53.084;6.352;2022-07-22T06:04:25;16.80;99.90
66629;DHT22;53532;53.084;6.352;2022-07-22T06:06:51;16.80;99.90
66629;DHT22;53532;53.084;6.352;2022-07-22T06:09:17;16.90;99.90
66629;DHT22;53532;53.084;6.352;2022-07-22T06:11:44;17.00;99.90
66629;DHT22;53532;53.084;6.352;2022-07-22T06:14:10;17.10;99.90
66629;DHT22;53532;53.084;6.352;2022-07-22T06:16:36;17.20;99.90
66629;DHT22;53532;53.084;6.352;2022-07-22T06:19:02;17.30;99.90
66629;DHT22;53532;53.084;6.352;2022-07-22T06:21:27;17.30;99.90
66629;DHT22;53532;53.084;6.352;2022-07-22T06:23:53;17.40;99.90
66629;DHT22;53532;53.084;6.352;2022-07-22T06:26:19;17.40;99.90
66629;DHT22;53532;53.084;6.352;2022-07-22T06:28:46;17.40;99.90
66629;DHT22;53532;53.084;6.352;2022-07-22T06:31:12;17.50;99.90
66629;DHT22;53532;53.084;6.352;2022-07-22T06:33:38;17.50;99.90
66629;DHT22;53532;53.084;6.352;2022-07-22T06:36:04;17.50;99.90
66629;DHT22;53532;53.084;6.352;2022-07-22T06:38:30;17.50;99.90
66629;DHT22;53532;53.084;6.352;2022-07-22T06:40:56;17.60;99.90
66629;DHT22;53532;53.084;6.352;2022-07-22T06:43:22;17.60;99.90
66629;DHT22;53532;53.084;6.352;2022-07-22T06:45:50;17.70;99.90
66629;DHT22;53532;53.084;6.352;2022-07-22T06:48:16;17.70;99.90
66629;DHT22;53532;53.084;6.352;2022-07-22T06:50:41;17.80;99.90
66629;DHT22;53532;53.084;6.352;2022-07-22T06:53:07;17.80;99.90
66629;DHT22;53532;53.084;6.352;2022-07-22T06:55:33;17.90;99.90
66629;DHT22;53532;53.084;6.352;2022-07-22T06:58:00;17.90;99.90
66629;DHT22;53532;53.084;6.352;2022-07-22T07:00:25;18.00;99.90
66629;DHT22;53532;53.084;6.352;2022-07-22T07:02:53;18.00;99.90
66629;DHT22;53532;53.084;6.352;2022-07-22T07:05:19;18.10;99.90
66629;DHT22;53532;53.084;6.352;2022-07-22T07:07:45;18.10;99.90
66629;DHT22;53532;53.084;6.352;2022-07-22T07:10:11;18.10;99.90
66629;DHT22;53532;53.084;6.352;2022-07-22T07:12:38;18.20;99.90
66629;DHT22;53532;53.084;6.352;2022-07-22T07:15:04;18.30;99.90
66629;DHT22;53532;53.084;6.352;2022-07-22T07:17:30;18.30;99.90
66629;DHT22;53532;53.084;6.352;2022-07-22T07:19:58;18.40;99.90
66629;DHT22;53532;53.084;6.352;2022-07-22T07:22:24;18.40;99.90
66629;DHT22;53532;53.084;6.352;2022-07-22T07:24:50;18.50;99.90
66629;DHT22;53532;53.084;6.352;2022-07-22T07:27:15;18.60;99.90
66629;DHT22;53532;53.084;6.352;2022-07-22T07:29:41;18.70;99.90
66629;DHT22;53532;53.084;6.352;2022-07-22T07:32:07;18.80;99.90
66629;DHT22;53532;53.084;6.352;2022-07-22T07:34:33;18.90;99.90
66629;DHT22;53532;53.084;6.352;2022-07-22T07:37:00;19.10;99.90
66629;DHT22;53532;53.084;6.352;2022-07-22T07:39:26;19.10;99.90
66629;DHT22;53532;53.084;6.352;2022-07-22T07:41:52;19.30;99.90
66629;DHT22;53532;53.084;6.352;2022-07-22T07:44:18;19.40;99.90
66629;DHT22;53532;53.084;6.352;2022-07-22T07:46:44;19.50;99.90
66629;DHT22;53532;53.084;6.352;2022-07-22T07:49:10;19.60;99.90
66629;DHT22;53532;53.084;6.352;2022-07-22T07:51:35;19.60;99.90
66629;DHT22;53532;53.084;6.352;2022-07-22T07:54:03;19.60;99.90
66629;DHT22;53532;53.084;6.352;2022-07-22T07:56:28;19.60;99.90
66629;DHT22;53532;53.084;6.352;2022-07-22T07:58:54;19.60;99.90
66629;DHT22;53532;53.084;6.352;2022-07-22T08:01:20;19.50;99.90
66629;DHT22;53532;53.084;6.352;2022-07-22T08:03:46;19.40;99.90
66629;DHT22;53532;53.084;6.352;2022-07-22T08:06:12;19.30;99.90
66629;DHT22;53532;53.084;6.352;2022-07-22T08:08:38;19.30;99.90
66629;DHT22;53532;53.084;6.352;2022-07-22T08:11:05;19.30;99.90
66629;DHT22;53532;53.084;6.352;2022-07-22T08:13:31;19.30;99.90
66629;DHT22;53532;53.084;6.352;2022-07-22T08:15:57;19.30;99.90
66629;DHT22;53532;53.084;6.352;2022-07-22T08:18:24;19.30;99.90
66629;DHT22;53532;53.084;6.352;2022-07-22T08:20:50;19.20;99.90
66629;DHT22;53532;53.084;6.352;2022-07-22T08:23:16;19.20;99.90
66629;DHT22;53532;53.084;6.352;2022-07-22T08:25:42;19.00;99.90
66629;DHT22;53532;53.084;6.352;2022-07-22T08:28:09;18.90;99.90
66629;DHT22;53532;53.084;6.352;2022-07-22T08:30:35;18.90;99.90
66629;DHT22;53532;53.084;6.352;2022-07-22T08:33:01;18.80;99.90
66629;DHT22;53532;53.084;6.352;2022-07-22T08:35:27;18.70;99.90
66629;DHT22;53532;53.084;6.352;2022-07-22T08:37:53;18.60;99.90
66629;DHT22;53532;53.084;6.352;2022-07-22T08:40:20;18.50;99.90
66629;DHT22;53532;53.084;6.352;2022-07-22T08:42:47;18.60;99.90
66629;DHT22;53532;53.084;6.352;2022-07-22T08:45:15;18.60;99.90
66629;DHT22;53532;53.084;6.352;2022-07-22T08:47:43;18.50;99.90
66629;DHT22;53532;53.084;6.352;2022-07-22T08:50:10;18.50;99.90
66629;DHT22;53532;53.084;6.352;2022-07-22T08:52:36;18.60;99.90
66629;DHT22;53532;53.084;6.352;2022-07-22T08:55:03;18.50;99.90
66629;DHT22;53532;53.084;6.352;2022-07-22T08:57:29;18.50;99.90
66629;DHT22;53532;53.084;6.352;2022-07-22T08:59:56;18.50;99.90
66629;DHT22;53532;53.084;6.352;2022-07-22T09:02:24;18.50;99.90
66629;DHT22;53532;53.084;6.352;2022-07-22T09:04:56;18.40;99.90
66629;DHT22;53532;53.084;6.352;2022-07-22T09:07:27;18.50;99.90
66629;DHT22;53532;53.084;6.352;2022-07-22T09:09:53;18.50;99.90
66629;DHT22;53532;53.084;6.352;2022-07-22T09:12:21;18.50;99.90
66629;DHT22;53532;53.084;6.352;2022-07-22T09:14:49;18.50;99.90
66629;DHT22;53532;53.084;6.352;2022-07-22T09:17:25;18.50;99.90
66629;DHT22;53532;53.084;6.352;2022-07-22T09:19:51;18.50;99.90
66629;DHT22;53532;53.084;6.352;2022-07-22T09:22:33;18.50;99.90
66629;DHT22;53532;53.084;6.352;2022-07-22T09:25:17;18.60;99.90
66629;DHT22;53532;53.084;6.352;2022-07-22T09:27:44;18.60;99.90
66629;DHT22;53532;53.084;6.352;2022-07-22T09:30:12;18.60;99.90
66629;DHT22;53532;53.084;6.352;2022-07-22T09:32:41;18.60;99.90
66629;DHT22;53532;53.084;6.352;2022-07-22T09:35:08;18.70;99.90
66629;DHT22;53532;53.084;6.352;2022-07-22T09:37:35;18.70;99.90
66629;DHT22;53532;53.084;6.352;2022-07-22T09:40:12;18.80;99.90
66629;DHT22;53532;53.084;6.352;2022-07-22T09:42:44;18.90;99.90
66629;DHT22;53532;53.084;6.352;2022-07-22T09:45:10;19.00;99.90
66629;DHT22;53532;53.084;6.352;2022-07-22T09:47:36;19.20;99.90
66629;DHT22;53532;53.084;6.352;2022-07-22T09:50:17;19.40;99.90
66629;DHT22;53532;53.084;6.352;2022-07-22T09:52:44;19.60;99.90
66629;DHT22;53532;53.084;6.352;2022-07-22T09:55:11;19.80;99.90
66629;DHT22;53532;53.084;6.352;2022-07-22T09:57:38;19.90;99.90
66629;DHT22;53532;53.084;6.352;2022-07-22T10:00:05;20.10;99.90
66629;DHT22;53532;53.084;6.352;2022-07-22T10:02:40;20.20;99.90
66629;DHT22;53532;53.084;6.352;2022-07-22T10:05:09;20.40;99.90
